createdAt,value
2023-03-17T00:02:23.534Z,100012.47
2023-03-17T00:05:30.082Z,100003.97
2023-03-17T00:08:35.839Z,99996.94
2023-03-17T00:11:37.611Z,99995.09
2023-03-17T00:14:39.541Z,99991.53
2023-03-17T00:17:42.429Z,99988.69
2023-03-17T00:20:45.446Z,99989.50
2023-03-17T00:23:51.738Z,100001.38
2023-03-17T00:26:54.058Z,100005.84
2023-03-17T00:29:55.775Z,100002.81
2023-03-17T00:32:58.720Z,100009.28
2023-03-17T00:36:01.433Z,100002.00
2023-03-17T00:42:14.152Z,99991.88
2023-03-17T00:45:16.721Z,99982.28
2023-03-17T00:48:20.715Z,99980.56
2023-03-17T00:51:23.423Z,99977.47
2023-03-17T00:54:26.547Z,99985.25
2023-03-17T00:57:28.761Z,99978.41
2023-03-17T01:00:31.544Z,99974.56
2023-03-17T01:03:34.408Z,99972.88
2023-03-17T01:06:36.907Z,99966.91
2023-03-17T01:09:41.565Z,99967.44
2023-03-17T01:12:45.895Z,99965.09
2023-03-17T01:15:49.180Z,99962.50
2023-03-17T01:18:50.988Z,99952.50
2023-03-17T01:21:52.875Z,99949.63
2023-03-17T01:24:56.616Z,99945.59
2023-03-17T01:27:59.611Z,99956.72
2023-03-17T01:31:02.743Z,99957.78
2023-03-17T01:34:06.161Z,99955.59
2023-03-17T01:37:08.315Z,99954.47
2023-03-17T01:40:15.692Z,99954.91
2023-03-17T01:43:21.492Z,99940.06
2023-03-17T01:46:27.671Z,99942.47
2023-03-17T01:49:34.999Z,99946.97
2023-03-17T01:52:39.687Z,99939.91
2023-03-17T01:55:45.575Z,99938.25
2023-03-17T01:58:51.569Z,99935.63
2023-03-17T02:01:56.817Z,99917.28
2023-03-17T02:05:03.165Z,99915.84
2023-03-17T02:08:11.269Z,99912.75
2023-03-17T02:11:15.287Z,99910.66
2023-03-17T02:14:17.369Z,99909.09
2023-03-17T02:17:19.830Z,99912.91
2023-03-17T02:21:14.211Z,99915.44
2023-03-17T02:24:22.682Z,99919.44
2023-03-17T02:27:29.712Z,99916.38
2023-03-17T02:30:33.067Z,99935.13
2023-03-17T02:33:34.927Z,99921.63
2023-03-17T02:36:37.324Z,99925.13
2023-03-17T02:39:40.887Z,99925.50
2023-03-17T02:42:42.697Z,99930.13
2023-03-17T02:45:44.496Z,99925.59
2023-03-17T02:48:47.740Z,99909.31
2023-03-17T02:51:51.452Z,99902.69
2023-03-17T02:54:54.707Z,99905.28
2023-03-17T02:57:56.658Z,99904.16
2023-03-17T03:00:58.607Z,99906.44
2023-03-17T03:04:00.443Z,99889.13
2023-03-17T03:07:02.785Z,99879.31
2023-03-17T03:10:07.160Z,99877.63
2023-03-17T03:13:12.320Z,99863.97
2023-03-17T03:16:14.959Z,99884.13
2023-03-17T03:19:17.570Z,99876.53
2023-03-17T03:22:19.234Z,99884.47
2023-03-17T03:25:22.445Z,99884.47
2023-03-17T03:28:24.401Z,99891.91
2023-03-17T03:31:27.066Z,99889.06
2023-03-17T03:34:29.212Z,99899.00
2023-03-17T03:37:31.226Z,99911.00
2023-03-17T03:40:35.993Z,99902.44
2023-03-17T03:43:37.768Z,99900.81
2023-03-17T03:46:39.678Z,99903.53
2023-03-17T03:49:41.499Z,99904.75
2023-03-17T03:52:43.181Z,99906.88
2023-03-17T03:55:46.787Z,99916.47
2023-03-17T03:58:48.500Z,99912.81
2023-03-17T04:01:50.468Z,99902.66
2023-03-17T04:04:52.703Z,99907.16
2023-03-17T04:07:54.833Z,99911.38
2023-03-17T04:10:58.615Z,99911.81
2023-03-17T04:14:00.933Z,99903.72
2023-03-17T04:17:05.266Z,99898.31
2023-03-17T04:20:08.269Z,99902.22
2023-03-17T04:23:09.926Z,99901.84
2023-03-17T04:26:13.636Z,99904.28
2023-03-17T04:29:15.942Z,99904.66
2023-03-17T04:32:17.746Z,99900.97
2023-03-17T04:35:23.572Z,99899.88
2023-03-17T04:38:25.342Z,99903.25
2023-03-17T04:41:28.322Z,99895.25
2023-03-17T04:44:30.063Z,99901.03
2023-03-17T04:47:32.075Z,99894.72
2023-03-17T04:50:34.621Z,99896.00
2023-03-17T04:53:36.216Z,99896.19
2023-03-17T04:56:41.067Z,99881.59
2023-03-17T04:59:42.708Z,99876.72
2023-03-17T05:02:44.401Z,99883.63
2023-03-17T05:05:47.081Z,99884.91
2023-03-17T05:08:49.196Z,99891.53
2023-03-17T05:11:52.615Z,99913.53
2023-03-17T05:14:54.378Z,99923.19
2023-03-17T05:17:56.602Z,99929.19
2023-03-17T05:20:58.349Z,99941.06
2023-03-17T05:24:02.326Z,99933.47
2023-03-17T05:27:05.621Z,99933.09
2023-03-17T05:30:08.938Z,99952.16
2023-03-17T05:33:10.957Z,99949.19
2023-03-17T05:36:13.412Z,99957.53
2023-03-17T05:39:17.550Z,99953.44
2023-03-17T05:42:20.693Z,99949.53
2023-03-17T05:45:22.841Z,99943.63
2023-03-17T05:48:25.269Z,99953.81
2023-03-17T05:51:27.723Z,99958.22
2023-03-17T05:54:29.645Z,99958.59
2023-03-17T05:57:33.005Z,99967.31
2023-03-17T06:00:38.060Z,99963.63
2023-03-17T06:03:40.046Z,99966.94
2023-03-17T06:06:41.715Z,99973.78
2023-03-17T06:09:43.493Z,99964.88
2023-03-17T06:12:47.266Z,99954.91
2023-03-17T06:15:51.783Z,99954.38
2023-03-17T06:18:53.670Z,99946.22
2023-03-17T06:21:55.949Z,99947.91
2023-03-17T06:25:04.615Z,99936.25
2023-03-17T06:28:07.652Z,99936.03
2023-03-17T06:31:09.447Z,99944.94
2023-03-17T06:34:12.044Z,99951.97
2023-03-17T06:37:13.860Z,99945.69
2023-03-17T06:40:16.233Z,99938.06
2023-03-17T06:43:19.926Z,99944.19
2023-03-17T06:46:21.620Z,99939.19
2023-03-17T06:49:23.256Z,99935.69
2023-03-17T06:52:25.267Z,99941.97
2023-03-17T06:55:27.456Z,99937.50
2023-03-17T06:58:33.505Z,99939.19
2023-03-17T07:01:35.313Z,99948.75
2023-03-17T07:04:38.060Z,99951.34
2023-03-17T07:07:39.951Z,99964.88
2023-03-17T07:10:42.176Z,99956.84
2023-03-17T07:13:46.287Z,99957.97
2023-03-17T07:16:48.498Z,99950.91
2023-03-17T07:19:50.315Z,99954.63
2023-03-17T07:22:52.277Z,99957.75
2023-03-17T07:25:53.989Z,99959.41
2023-03-17T07:28:57.157Z,99955.94
2023-03-17T07:31:58.954Z,99950.25
2023-03-17T07:35:00.842Z,99952.13
2023-03-17T07:38:03.058Z,99937.28
2023-03-17T07:41:09.651Z,99942.78
2023-03-17T07:44:13.398Z,99941.97
2023-03-17T07:47:15.039Z,99938.41
2023-03-17T07:50:17.002Z,99935.53
2023-03-17T07:53:19.138Z,99937.25
2023-03-17T07:56:21.389Z,99938.13
2023-03-17T07:59:24.461Z,99946.94
2023-03-17T08:02:26.237Z,99941.19
2023-03-17T08:05:28.280Z,99939.47
2023-03-17T08:08:30.521Z,99944.34
2023-03-17T08:11:33.186Z,99948.75
2023-03-17T08:14:36.601Z,99950.56
2023-03-17T08:17:39.621Z,99950.66
2023-03-17T08:20:42.103Z,99940.66
2023-03-17T08:23:43.927Z,99935.16
2023-03-17T08:26:48.075Z,99933.47
2023-03-17T08:29:51.640Z,99936.09
2023-03-17T08:32:54.607Z,99930.25
2023-03-17T08:35:56.487Z,99928.25
2023-03-17T08:38:59.041Z,99922.13
2023-03-17T08:42:00.901Z,99916.84
2023-03-17T08:45:06.850Z,99931.91
2023-03-17T08:48:08.433Z,99926.63
2023-03-17T08:51:10.174Z,99928.16
2023-03-17T08:54:12.793Z,99920.44
2023-03-17T08:57:15.808Z,99920.06
2023-03-17T09:00:21.029Z,99915.34
2023-03-17T09:03:25.400Z,99898.31
2023-03-17T09:06:27.684Z,99911.53
2023-03-17T09:09:31.192Z,99920.47
2023-03-17T09:12:34.229Z,99915.44
2023-03-17T09:15:38.842Z,99924.66
2023-03-17T09:18:41.292Z,99913.41
2023-03-17T09:21:42.929Z,99912.13
2023-03-17T09:24:45.568Z,99902.38
2023-03-17T09:27:47.459Z,99897.41
2023-03-17T09:30:50.947Z,99886.25
2023-03-17T09:33:53.391Z,99878.00
2023-03-17T09:36:55.233Z,99877.59
2023-03-17T09:39:57.933Z,99869.19
2023-03-17T09:43:16.651Z,99867.66
2023-03-17T09:46:35.070Z,99859.13
2023-03-17T09:49:42.421Z,99873.81
2023-03-17T09:52:44.854Z,99869.75
2023-03-17T09:55:51.956Z,99866.75
2023-03-17T09:58:58.013Z,99858.41
2023-03-17T10:02:01.707Z,99862.91
2023-03-17T10:05:13.970Z,99861.66
2023-03-17T10:08:31.385Z,99851.81
2023-03-17T10:11:40.600Z,99854.69
2023-03-17T10:14:54.303Z,99854.66
2023-03-17T10:17:58.575Z,99857.34
2023-03-17T10:21:04.396Z,99847.13
2023-03-17T10:24:06.922Z,99846.91
2023-03-17T10:27:13.626Z,99840.56
2023-03-17T10:30:17.417Z,99837.47
2023-03-17T10:33:21.694Z,99840.69
2023-03-17T10:36:34.869Z,99843.41
2023-03-17T10:39:45.959Z,99830.56
2023-03-17T10:42:52.962Z,99824.44
2023-03-17T10:45:58.991Z,99822.28
2023-03-17T10:49:07.845Z,99829.44
2023-03-17T10:52:21.165Z,99830.56
2023-03-17T10:55:26.499Z,99823.91
2023-03-17T10:58:41.713Z,99822.41
2023-03-17T11:01:49.846Z,99829.06
2023-03-17T11:04:59.405Z,99827.59
2023-03-17T11:08:10.368Z,99832.50
2023-03-17T11:11:24.629Z,99828.84
2023-03-17T11:14:30.385Z,99829.38
2023-03-17T11:17:39.798Z,99828.50
2023-03-17T11:20:50.683Z,99823.31
2023-03-17T11:23:52.828Z,99821.00
2023-03-17T11:26:59.281Z,99815.88
2023-03-17T11:30:27.852Z,99811.38
2023-03-17T11:33:36.558Z,99818.38
2023-03-17T11:36:50.390Z,99811.34
2023-03-17T11:40:01.872Z,99805.25
2023-03-17T11:43:23.348Z,99810.84
2023-03-17T11:46:29.018Z,99803.28
2023-03-17T11:49:36.108Z,99802.06
2023-03-17T11:52:50.611Z,99789.06
2023-03-17T11:55:58.052Z,99793.19
2023-03-17T11:59:05.232Z,99777.75
2023-03-17T12:02:20.392Z,99779.63
2023-03-17T12:05:25.067Z,99776.75
2023-03-17T12:08:37.749Z,99771.94
2023-03-17T12:11:43.317Z,99776.19
2023-03-17T12:14:52.267Z,99781.28
2023-03-17T12:17:57.769Z,99776.31
2023-03-17T12:21:02.074Z,99771.31
2023-03-17T12:24:12.808Z,99762.59
2023-03-17T12:27:15.868Z,99764.84
2023-03-17T12:30:29.098Z,99765.53
2023-03-17T12:33:38.877Z,99771.13
2023-03-17T12:36:41.573Z,99773.06
2023-03-17T12:39:50.307Z,99767.00
2023-03-17T12:43:01.676Z,99761.25
2023-03-17T12:46:42.218Z,99754.69
2023-03-17T12:50:05.880Z,99748.25
2023-03-17T12:53:24.704Z,99756.84
2023-03-17T12:56:29.997Z,99745.34
2023-03-17T12:59:35.112Z,99741.53
2023-03-17T13:02:39.175Z,99748.41
2023-03-17T13:05:46.697Z,99735.91
2023-03-17T13:08:51.706Z,99734.53
2023-03-17T13:11:55.764Z,99730.78
2023-03-17T13:14:58.570Z,99728.38
2023-03-17T13:18:49.765Z,99728.81
2023-03-17T13:22:13.771Z,99720.03
2023-03-17T13:25:31.336Z,99715.81
2023-03-17T13:28:42.598Z,99709.31
2023-03-17T13:31:44.859Z,99703.16
2023-03-17T13:34:50.545Z,99696.97
2023-03-17T13:38:12.908Z,99704.72
2023-03-17T13:41:32.307Z,99693.94
2023-03-17T13:44:47.667Z,99692.84
2023-03-17T13:47:51.385Z,99683.50
2023-03-17T13:50:59.513Z,99679.31
2023-03-17T13:54:09.185Z,99676.69
2023-03-17T13:57:26.910Z,99682.88
2023-03-17T14:00:33.031Z,99679.47
2023-03-17T14:03:40.779Z,99681.00
2023-03-17T14:06:42.675Z,99682.38
2023-03-17T14:09:45.329Z,99670.03
2023-03-17T14:12:58.394Z,99676.16
2023-03-17T14:16:04.814Z,99672.91
2023-03-17T14:19:18.000Z,99676.88
2023-03-17T14:22:22.173Z,99672.94
2023-03-17T14:25:26.579Z,99670.63
2023-03-17T14:28:33.305Z,99671.22
2023-03-17T14:31:35.281Z,99660.13
2023-03-17T14:34:42.942Z,99667.44
2023-03-17T14:37:45.424Z,99649.94
2023-03-17T14:40:47.878Z,99652.75
2023-03-17T14:43:52.439Z,99644.63
2023-03-17T14:47:02.254Z,99641.06
2023-03-17T14:50:18.126Z,99639.56
2023-03-17T14:53:20.488Z,99647.31
2023-03-17T14:56:24.113Z,99640.09
2023-03-17T14:59:31.911Z,99636.06
2023-03-17T15:02:35.486Z,99633.59
2023-03-17T15:05:39.731Z,99629.22
2023-03-17T15:08:46.572Z,99627.91
2023-03-17T15:11:49.142Z,99628.56
2023-03-17T15:14:54.321Z,99628.16
2023-03-17T15:17:57.841Z,99621.84
2023-03-17T15:21:02.593Z,99627.34
2023-03-17T15:24:20.098Z,99621.53
2023-03-17T15:27:21.756Z,99626.34
2023-03-17T15:30:29.486Z,99616.25
2023-03-17T15:33:39.259Z,99616.69
2023-03-17T15:36:43.564Z,99614.44
2023-03-17T15:39:45.698Z,99605.69
2023-03-17T15:42:47.597Z,99615.53
2023-03-17T15:45:55.280Z,99619.41
2023-03-17T15:48:56.991Z,99625.03
2023-03-17T15:51:58.753Z,99604.41
2023-03-17T15:55:00.661Z,99619.41
2023-03-17T15:58:02.702Z,99611.59
2023-03-17T16:01:06.481Z,99615.59
2023-03-17T16:04:09.086Z,99621.97
2023-03-17T16:07:12.266Z,99612.72
2023-03-17T16:10:18.494Z,99622.66
2023-03-17T16:13:20.632Z,99628.31
2023-03-17T16:16:30.246Z,99626.00
2023-03-17T16:19:32.872Z,99625.38
2023-03-17T16:22:38.149Z,99632.25
2023-03-17T16:25:40.026Z,99632.84
2023-03-17T16:28:42.298Z,99633.44
2023-03-17T16:31:51.683Z,99636.97
2023-03-17T16:34:55.046Z,99641.97
2023-03-17T16:37:56.899Z,99641.38
2023-03-17T16:41:01.131Z,99629.91
2023-03-17T16:44:03.808Z,99633.91
2023-03-17T16:47:10.068Z,99642.31
2023-03-17T16:50:16.439Z,99641.88
2023-03-17T16:53:18.326Z,99642.25
2023-03-17T16:56:22.590Z,99635.50
2023-03-17T16:59:28.212Z,99646.03
2023-03-17T17:02:31.579Z,99655.81
2023-03-17T17:05:34.590Z,99659.34
2023-03-17T17:08:37.261Z,99658.53
2023-03-17T17:11:39.019Z,99654.53
2023-03-17T17:14:40.658Z,99645.38
2023-03-17T17:17:46.624Z,99652.00
2023-03-17T17:20:49.241Z,99648.88
2023-03-17T17:23:53.030Z,99652.91
2023-03-17T17:26:55.188Z,99654.84
2023-03-17T17:29:57.365Z,99652.28
2023-03-17T17:33:01.093Z,99656.25
2023-03-17T17:36:04.356Z,99662.06
2023-03-17T17:39:06.676Z,99659.50
2023-03-17T17:42:10.869Z,99645.63
2023-03-17T17:45:13.557Z,99643.03
2023-03-17T17:48:18.192Z,99639.75
2023-03-17T17:51:19.952Z,99640.75
2023-03-17T17:54:21.843Z,99642.53
2023-03-17T17:57:23.665Z,99651.19
2023-03-17T18:00:27.484Z,99650.03
2023-03-17T18:03:32.129Z,99659.88
2023-03-17T18:06:33.882Z,99661.25
2023-03-17T18:09:36.025Z,99671.28
2023-03-17T18:12:38.009Z,99673.91
2023-03-17T18:15:39.994Z,99686.88
2023-03-17T18:18:45.588Z,99691.56
2023-03-17T18:21:47.661Z,99697.88
2023-03-17T18:24:49.856Z,99698.63
2023-03-17T18:27:51.510Z,99699.34
2023-03-17T18:30:53.964Z,99698.44
2023-03-17T18:33:59.802Z,99707.78
2023-03-17T18:37:02.432Z,99701.69
2023-03-17T18:40:14.343Z,99706.22
2023-03-17T18:43:17.204Z,99706.47
2023-03-17T18:46:18.940Z,99702.00
2023-03-17T18:49:25.134Z,99701.09
2023-03-17T18:52:31.349Z,99699.66
2023-03-17T18:55:33.187Z,99704.03
2023-03-17T18:58:36.288Z,99699.19
2023-03-17T19:01:38.305Z,99697.25
2023-03-17T19:04:46.013Z,99701.88
2023-03-17T19:07:47.958Z,99701.84
2023-03-17T19:10:50.395Z,99697.28
2023-03-17T19:13:53.713Z,99694.50
2023-03-17T19:16:55.565Z,99693.59
2023-03-17T19:19:59.156Z,99695.84
2023-03-17T19:23:01.199Z,99691.09
2023-03-17T19:26:04.619Z,99692.56
2023-03-17T19:29:09.700Z,99705.56
2023-03-17T19:32:12.098Z,99696.66
2023-03-17T19:35:15.360Z,99701.13
2023-03-17T19:38:17.274Z,99710.56
2023-03-17T19:41:19.100Z,99707.00
2023-03-17T19:44:22.722Z,99709.25
2023-03-17T19:47:24.865Z,99707.00
2023-03-17T19:50:28.174Z,99704.13
2023-03-17T19:53:29.856Z,99711.47
2023-03-17T19:56:32.120Z,99718.69
2023-03-17T19:59:33.912Z,99715.56
2023-03-17T20:02:35.896Z,99729.59
2023-03-17T20:05:39.420Z,99732.22
2023-03-17T20:08:42.916Z,99727.50
2023-03-17T20:11:44.587Z,99735.75
2023-03-17T20:14:46.958Z,99726.81
2023-03-17T20:17:49.057Z,99726.03
2023-03-17T20:20:53.222Z,99728.38
2023-03-17T20:23:55.192Z,99728.66
2023-03-17T20:26:58.272Z,99728.66
2023-03-17T20:30:00.172Z,99725.25
2023-03-17T20:33:02.032Z,99730.50
2023-03-17T20:36:06.237Z,99731.94
2023-03-17T20:39:09.273Z,99731.16
2023-03-17T20:42:14.504Z,99727.53
2023-03-17T20:45:16.490Z,99733.69
2023-03-17T20:48:18.273Z,99730.50
2023-03-17T20:51:21.619Z,99733.69
2023-03-17T20:54:23.496Z,99722.63
2023-03-17T20:57:25.206Z,99725.91
2023-03-17T21:00:27.232Z,99733.78
2023-03-17T21:03:29.858Z,99725.53
2023-03-17T21:06:34.226Z,99733.44
2023-03-17T21:09:36.049Z,99731.84
2023-03-17T21:12:38.125Z,99730.13
2023-03-17T21:15:41.042Z,99725.13
2023-03-17T21:18:42.785Z,99728.16
2023-03-17T21:21:46.016Z,99716.94
2023-03-17T21:24:47.709Z,99723.13
2023-03-17T21:27:50.356Z,99728.91
2023-03-17T21:30:52.207Z,99730.63
2023-03-17T21:33:53.922Z,99741.81
2023-03-17T21:36:59.160Z,99734.59
2023-03-17T21:40:00.860Z,99733.38
2023-03-17T21:43:02.860Z,99747.72
2023-03-17T21:46:05.393Z,99749.66
2023-03-17T21:49:07.021Z,99748.34
2023-03-17T21:52:10.696Z,99743.88
2023-03-17T21:55:12.795Z,99739.69
2023-03-17T21:58:14.527Z,99730.63
2023-03-17T22:01:16.646Z,99721.00
2023-03-17T22:04:18.628Z,99712.09
2023-03-17T22:07:22.175Z,99716.28
2023-03-17T22:10:23.979Z,99711.97
2023-03-17T22:13:26.028Z,99721.00
2023-03-17T22:16:28.010Z,99729.31
2023-03-17T22:19:31.823Z,99732.06
2023-03-17T22:22:35.937Z,99735.03
2023-03-17T22:25:37.670Z,99739.22
2023-03-17T22:28:40.619Z,99747.66
2023-03-17T22:31:42.726Z,99756.44
2023-03-17T22:34:45.199Z,99758.28
2023-03-17T22:37:48.395Z,99760.94
2023-03-17T22:41:00.107Z,99764.13
2023-03-17T22:44:02.528Z,99773.53
2023-03-17T22:47:04.938Z,99773.31
2023-03-17T22:50:07.972Z,99775.44
2023-03-17T22:53:11.454Z,99778.84
2023-03-17T22:56:15.774Z,99786.50
2023-03-17T22:59:18.971Z,99789.97
2023-03-17T23:02:21.205Z,99783.97
2023-03-17T23:05:23.042Z,99779.84
2023-03-17T23:08:29.331Z,99786.53
2023-03-17T23:11:31.063Z,99796.41
2023-03-17T23:14:32.734Z,99786.31
2023-03-17T23:17:36.912Z,99791.19
2023-03-17T23:20:42.544Z,99798.69
2023-03-17T23:23:45.674Z,99793.41
2023-03-17T23:26:47.413Z,99796.19
2023-03-17T23:29:49.133Z,99807.59
2023-03-17T23:32:51.025Z,99806.56
2023-03-17T23:35:53.005Z,99817.19
2023-03-17T23:38:56.677Z,99823.34
2023-03-17T23:41:58.830Z,99824.03
2023-03-17T23:45:00.627Z,99821.94
2023-03-17T23:48:02.952Z,99831.91
2023-03-17T23:51:05.140Z,99839.28
2023-03-17T23:54:09.350Z,99846.63
2023-03-17T23:57:12.205Z,99841.88
